Time;durP1;ratioP1;P1;durP2;ratioP2;P2;SDS_P1;SDS_P2;PMS_P1;PMS_P2;Temp;Humidity;BMP_temperature;BMP_pressure;BME280_temperature;BME280_humidity;BME280_pressure;Samples;Min_cycle;Max_cycle;Signal;HPM_P1;HPM_P2
2020/12/24 00:02:19;;;;;;;0.87;0.57;;;;;;;10.12;98.59;95759.78;5100230;28;20468;-80
2020/12/24 00:04:45;;;;;;;0.70;0.40;;;;;;;10.04;97.54;95758.41;5101129;28;20449;-81
2020/12/24 00:07:11;;;;;;;0.83;0.60;;;;;;;10.04;97.14;95767.22;5100821;28;20504;-83
2020/12/24 00:09:38;;;;;;;1.53;0.90;;;;;;;9.99;95.36;95778.91;5099416;28;20454;-83
2020/12/24 00:12:04;;;;;;;1.03;0.77;;;;;;;10.01;94.15;95773.72;5099009;28;20892;-83
2020/12/24 00:14:31;;;;;;;2.80;0.60;;;;;;;10.04;93.46;95772.63;5104950;28;20549;-84
2020/12/24 00:16:58;;;;;;;1.40;0.50;;;;;;;9.98;90.89;95750.56;5101622;28;20502;-80
2020/12/24 00:19:24;;;;;;;1.57;0.60;;;;;;;9.99;87.80;95767.44;5101858;28;20987;-80
2020/12/24 00:21:51;;;;;;;1.47;0.97;;;;;;;9.96;87.60;95773.94;5100863;28;20779;-84
2020/12/24 00:24:18;;;;;;;2.60;0.57;;;;;;;10.01;87.52;95754.13;5099074;28;20445;-84
2020/12/24 00:26:44;;;;;;;0.80;0.80;;;;;;;9.92;87.36;95766.22;5100411;28;20451;-81
2020/12/24 00:29:10;;;;;;;0.90;0.50;;;;;;;9.88;87.46;95768.59;5101805;28;20468;-80
2020/12/24 00:31:38;;;;;;;1.20;0.50;;;;;;;9.88;88.16;95763.19;5101084;28;20460;-80
2020/12/24 00:34:05;;;;;;;2.10;0.60;;;;;;;9.81;87.50;95772.03;5099867;28;20468;-84
2020/12/24 00:36:32;;;;;;;0.73;0.70;;;;;;;9.88;87.52;95767.88;5103439;28;20437;-85
2020/12/24 00:38:59;;;;;;;1.13;0.83;;;;;;;9.71;88.09;95779.28;5098167;28;20774;-84
2020/12/24 00:41:26;;;;;;;1.17;0.63;;;;;;;9.71;88.54;95770.50;5098200;28;20469;-84
2020/12/24 00:43:52;;;;;;;3.43;0.67;;;;;;;9.76;87.67;95761.50;5105076;28;20415;-83
2020/12/24 00:46:19;;;;;;;0.90;0.60;;;;;;;9.67;87.25;95773.56;5098263;28;20484;-84
2020/12/24 00:48:46;;;;;;;1.70;0.57;;;;;;;9.74;87.55;95770.13;5097487;28;20421;-83
2020/12/24 00:51:13;;;;;;;1.33;0.50;;;;;;;9.77;86.90;95771.72;5098328;28;20487;-80
2020/12/24 00:53:39;;;;;;;0.70;0.50;;;;;;;9.86;86.90;95765.03;5099126;28;20631;-79
2020/12/24 00:56:07;;;;;;;1.80;0.60;;;;;;;9.83;86.77;95772.22;5097748;28;20430;-80
2020/12/24 00:58:33;;;;;;;2.20;0.90;;;;;;;9.80;87.46;95778.00;5098172;28;20520;-79
2020/12/24 01:01:00;;;;;;;1.30;0.67;;;;;;;9.73;87.63;95784.13;5098314;28;20464;-80
2020/12/24 01:03:26;;;;;;;1.20;0.80;;;;;;;9.80;87.99;95796.84;5098737;28;20454;-80
2020/12/24 01:05:53;;;;;;;1.43;0.77;;;;;;;9.72;88.22;95798.88;5099847;28;20480;-82
2020/12/24 01:08:20;;;;;;;3.17;1.30;;;;;;;9.69;89.08;95792.59;5107758;28;20426;-82
2020/12/24 01:10:46;;;;;;;3.53;1.83;;;;;;;9.67;90.20;95811.28;5107394;28;20427;-82
2020/12/24 01:13:13;;;;;;;2.57;1.43;;;;;;;9.62;91.13;95796.03;5107255;28;20432;-82
2020/12/24 01:15:39;;;;;;;1.47;1.10;;;;;;;9.73;91.44;95801.03;5106124;28;20458;-82
2020/12/24 01:18:05;;;;;;;2.23;1.30;;;;;;;9.65;91.96;95790.28;5106349;28;20836;-82
2020/12/24 01:20:32;;;;;;;3.70;2.17;;;;;;;9.60;92.95;95804.69;5105502;28;20489;-84
2020/12/24 01:22:59;;;;;;;5.30;2.07;;;;;;;9.48;94.64;95813.72;5097643;28;20472;-84
2020/12/24 01:25:26;;;;;;;1.90;1.20;;;;;;;9.42;95.47;95794.34;5097481;28;20986;-84
2020/12/24 01:27:52;;;;;;;2.10;0.93;;;;;;;9.47;95.73;95791.47;5097880;28;20486;-80
2020/12/24 01:30:18;;;;;;;0.80;0.60;;;;;;;9.50;95.86;95779.59;5100635;28;20452;-80
2020/12/24 01:32:45;;;;;;;1.63;0.80;;;;;;;9.42;96.12;95799.75;5100177;28;20448;-81
2020/12/24 01:35:11;;;;;;;2.10;0.87;;;;;;;9.35;96.98;95803.91;5100771;28;20440;-80
2020/12/24 01:37:38;;;;;;;1.57;0.77;;;;;;;9.24;98.54;95806.97;5104330;28;20852;-83
2020/12/24 01:40:05;;;;;;;3.90;1.00;;;;;;;9.22;99.21;95817.59;5104355;28;20419;-83
2020/12/24 01:42:32;;;;;;;3.03;0.97;;;;;;;9.20;99.67;95822.81;5103770;28;20468;-80
2020/12/24 01:44:58;;;;;;;2.13;0.80;;;;;;;9.21;99.80;95816.16;5100041;28;20440;-80
2020/12/24 01:47:25;;;;;;;1.43;0.40;;;;;;;9.17;100.00;95829.28;5099445;28;20855;-84
2020/12/24 01:49:51;;;;;;;1.90;0.73;;;;;;;9.25;100.00;95829.25;5101522;28;20399;-84
2020/12/24 01:52:30;;;;;;;4.80;0.50;;;;;;;9.24;100.00;95838.59;5103912;28;20469;-84
2020/12/24 01:54:57;;;;;;;0.87;0.40;;;;;;;9.27;100.00;95842.88;5101722;28;20501;-84
2020/12/24 01:57:24;;;;;;;1.93;0.60;;;;;;;9.35;100.00;95843.56;5100337;28;20903;-84
2020/12/24 01:59:53;;;;;;;2.20;0.40;;;;;;;9.25;100.00;95827.25;5099875;28;20411;-84
2020/12/24 02:02:19;;;;;;;1.63;0.43;;;;;;;9.25;100.00;95834.63;5102728;28;20460;-83
2020/12/24 02:04:46;;;;;;;0.50;0.43;;;;;;;9.25;99.13;95813.81;5102714;28;20452;-83
2020/12/24 02:07:15;;;;;;;0.90;0.57;;;;;;;9.33;97.74;95774.13;5101511;28;20545;-82
2020/12/24 02:09:44;;;;;;;3.07;0.50;;;;;;;9.30;96.00;95794.06;5100933;28;20783;-82
2020/12/24 02:12:12;;;;;;;0.73;0.43;;;;;;;9.20;95.20;95781.72;5102136;28;20426;-80
2020/12/24 02:14:40;;;;;;;4.13;0.80;;;;;;;9.04;90.56;95789.84;5111141;28;20935;-81
2020/12/24 02:17:06;;;;;;;0.97;0.50;;;;;;;9.09;90.73;95777.44;5111450;28;20404;-82
2020/12/24 02:19:33;;;;;;;1.70;0.40;;;;;;;9.05;91.48;95764.34;5110721;28;20463;-81
2020/12/24 02:22:00;;;;;;;1.67;0.80;;;;;;;8.92;90.04;95766.56;5110677;28;20431;-81
2020/12/24 02:24:27;;;;;;;0.67;0.40;;;;;;;8.91;90.28;95740.91;5111126;28;20423;-82
2020/12/24 02:26:54;;;;;;;0.73;0.50;;;;;;;8.81;90.32;95708.47;5106071;28;20450;-80
2020/12/24 02:29:20;;;;;;;2.50;0.63;;;;;;;8.85;90.50;95691.97;5103931;28;20429;-80
2020/12/24 02:31:46;;;;;;;0.67;0.40;;;;;;;8.75;90.08;95697.22;5103733;28;20500;-80
2020/12/24 02:34:13;;;;;;;2.40;0.50;;;;;;;8.83;89.67;95689.13;5104712;28;20440;-81
2020/12/24 02:36:39;;;;;;;1.60;0.63;;;;;;;8.81;90.29;95713.16;5104613;28;20440;-80
2020/12/24 02:39:06;;;;;;;2.53;0.83;;;;;;;8.85;90.60;95694.66;5105457;28;20446;-81
2020/12/24 02:41:33;;;;;;;1.03;0.60;;;;;;;8.79;90.43;95681.41;5105382;28;20460;-80
2020/12/24 02:43:59;;;;;;;3.50;0.80;;;;;;;8.87;90.61;95681.38;5103717;28;20440;-80
2020/12/24 02:46:26;;;;;;;1.67;1.03;;;;;;;8.73;91.08;95699.75;5103723;28;20484;-80
2020/12/24 02:48:52;;;;;;;1.13;0.73;;;;;;;8.76;90.83;95701.34;5103602;28;20444;-80
2020/12/24 02:51:18;;;;;;;1.03;0.40;;;;;;;8.66;91.17;95699.75;5103804;28;20451;-80
2020/12/24 02:53:45;;;;;;;1.10;0.70;;;;;;;8.74;90.40;95697.75;5103391;28;20447;-80
2020/12/24 02:56:12;;;;;;;1.33;0.80;;;;;;;8.70;89.91;95700.09;5104274;28;20415;-80
2020/12/24 02:58:38;;;;;;;2.33;0.80;;;;;;;8.65;90.59;95715.16;5103264;28;20411;-80
2020/12/24 03:01:05;;;;;;;1.77;0.70;;;;;;;8.58;91.12;95718.63;5102406;28;20522;-80
2020/12/24 03:03:31;;;;;;;4.10;0.80;;;;;;;8.60;90.98;95727.56;5103564;28;20548;-81
2020/12/24 03:05:57;;;;;;;2.70;1.13;;;;;;;8.64;90.96;95729.16;5100991;28;20480;-84
2020/12/24 03:08:24;;;;;;;1.93;1.33;;;;;;;8.54;91.23;95731.69;5098479;28;20494;-84
2020/12/24 03:10:50;;;;;;;2.50;0.73;;;;;;;8.47;91.57;95730.47;5098716;28;20464;-84
2020/12/24 03:13:17;;;;;;;3.10;0.70;;;;;;;8.45;91.55;95732.97;5098364;28;20429;-84
2020/12/24 03:15:44;;;;;;;3.00;0.83;;;;;;;8.49;91.33;95733.31;5098551;28;20498;-85
2020/12/24 03:18:10;;;;;;;1.73;0.50;;;;;;;8.45;91.84;95743.72;5098356;28;20423;-84
2020/12/24 03:20:36;;;;;;;0.60;0.40;;;;;;;8.39;91.53;95737.84;5098999;28;20803;-84
2020/12/24 03:23:03;;;;;;;1.80;0.50;;;;;;;8.38;91.24;95728.31;5098225;28;20796;-84
2020/12/24 03:25:29;;;;;;;1.00;0.60;;;;;;;8.30;91.88;95706.09;5098029;28;20491;-84
2020/12/24 03:27:55;;;;;;;5.17;2.40;;;;;;;8.34;91.89;95682.28;5120624;28;20420;-82
2020/12/24 03:30:23;;;;;;;2.00;0.63;;;;;;;8.29;91.84;95669.03;5120955;28;20451;-82
2020/12/24 03:32:49;;;;;;;3.30;0.70;;;;;;;8.31;91.96;95663.81;5121037;28;20437;-82
2020/12/24 03:35:15;;;;;;;1.17;0.60;;;;;;;8.32;92.18;95670.63;5120808;28;20485;-82
2020/12/24 03:37:42;;;;;;;2.17;0.43;;;;;;;8.35;92.34;95667.59;5115517;28;20439;-81
2020/12/24 03:40:08;;;;;;;2.57;0.60;;;;;;;8.29;92.63;95667.06;5106716;28;20450;-80
2020/12/24 03:42:35;;;;;;;1.53;0.50;;;;;;;8.25;93.19;95669.38;5110178;28;20443;-82
2020/12/24 03:45:01;;;;;;;0.60;0.40;;;;;;;8.27;93.64;95663.47;5109053;28;20504;-81
2020/12/24 03:47:28;;;;;;;0.90;0.60;;;;;;;8.24;93.94;95669.94;5107664;28;20423;-81
2020/12/24 03:49:55;;;;;;;0.90;0.50;;;;;;;8.19;94.23;95655.41;5108357;28;20445;-81
2020/12/24 03:52:21;;;;;;;0.80;0.63;;;;;;;8.15;94.52;95659.72;5107695;28;20455;-81
2020/12/24 03:54:48;;;;;;;2.97;0.60;;;;;;;8.16;94.43;95659.19;5100259;28;20933;-83
2020/12/24 03:57:14;;;;;;;1.50;0.60;;;;;;;8.20;94.35;95674.94;5098007;28;20444;-83
2020/12/24 03:59:40;;;;;;;1.03;0.50;;;;;;;8.05;95.24;95681.03;5098306;28;20437;-83
2020/12/24 04:02:06;;;;;;;0.93;0.40;;;;;;;7.98;95.70;95687.16;5098349;28;20464;-81
2020/12/24 04:04:34;;;;;;;0.50;0.40;;;;;;;7.93;96.21;95696.09;5103089;28;20535;-81
2020/12/24 04:07:00;;;;;;;1.00;0.40;;;;;;;7.92;96.26;95694.69;5102580;28;20480;-81
2020/12/24 04:09:26;;;;;;;1.57;0.73;;;;;;;8.03;95.78;95686.97;5102531;28;20535;-81
2020/12/24 04:11:53;;;;;;;1.70;0.30;;;;;;;8.09;95.11;95692.88;5102251;28;20464;-81
2020/12/24 04:14:19;;;;;;;0.90;0.40;;;;;;;7.99;95.10;95685.88;5102916;28;20440;-81
2020/12/24 04:16:45;;;;;;;3.53;0.73;;;;;;;8.02;94.25;95696.25;5101904;28;20506;-80
2020/12/24 04:19:12;;;;;;;1.10;0.63;;;;;;;8.06;93.86;95690.53;5101367;28;20418;-80
2020/12/24 04:21:39;;;;;;;0.90;0.33;;;;;;;8.07;93.61;95692.69;5101274;28;20439;-80
2020/12/24 04:24:05;;;;;;;1.33;0.50;;;;;;;7.92;93.92;95695.41;5101934;28;20443;-80
2020/12/24 04:26:32;;;;;;;1.00;0.57;;;;;;;8.02;93.66;95703.59;5101256;28;20975;-81
2020/12/24 04:28:58;;;;;;;1.20;0.60;;;;;;;8.01;94.10;95694.13;5099613;28;20684;-84
2020/12/24 04:31:24;;;;;;;1.20;0.53;;;;;;;8.02;93.60;95690.19;5097118;28;20977;-84
2020/12/24 04:33:51;;;;;;;3.37;0.47;;;;;;;8.03;93.96;95686.25;5096983;28;20415;-84
2020/12/24 04:36:17;;;;;;;0.67;0.50;;;;;;;8.04;94.39;95680.34;5097592;28;20510;-84
2020/12/24 04:38:44;;;;;;;1.43;0.70;;;;;;;7.95;95.28;95672.13;5098397;28;20489;-84
2020/12/24 04:41:11;;;;;;;1.83;0.50;;;;;;;7.93;95.94;95682.66;5098800;28;20449;-84
2020/12/24 04:43:38;;;;;;;1.10;0.60;;;;;;;7.97;96.35;95691.81;5098892;28;20459;-83
2020/12/24 04:46:06;;;;;;;1.07;0.60;;;;;;;7.95;96.25;95697.00;5098219;28;20541;-83
2020/12/24 04:48:33;;;;;;;1.33;0.50;;;;;;;8.02;95.95;95682.84;5097107;28;20419;-83
2020/12/24 04:51:01;;;;;;;2.43;0.40;;;;;;;7.94;96.03;95684.81;5097874;28;20525;-83
2020/12/24 04:53:27;;;;;;;1.13;0.50;;;;;;;8.04;95.07;95679.63;5104125;28;20476;-81
2020/12/24 04:55:55;;;;;;;0.67;0.40;;;;;;;8.01;95.46;95678.00;5104966;28;20491;-82
2020/12/24 04:58:23;;;;;;;1.60;0.30;;;;;;;7.99;94.39;95667.78;5105648;28;20436;-82
2020/12/24 05:00:51;;;;;;;1.00;0.50;;;;;;;7.93;93.67;95655.81;5104500;28;20510;-81
2020/12/24 05:03:17;;;;;;;2.07;0.50;;;;;;;7.88;93.88;95640.59;5104985;28;20410;-82
2020/12/24 05:05:45;;;;;;;0.70;0.50;;;;;;;7.80;94.47;95653.34;5098862;28;20480;-79
2020/12/24 05:08:11;;;;;;;0.67;0.30;;;;;;;7.74;94.74;95647.41;5099331;28;20460;-80
2020/12/24 05:10:38;;;;;;;1.47;0.40;;;;;;;7.70;94.56;95642.41;5099973;28;20478;-80
2020/12/24 05:13:17;;;;;;;2.93;0.50;;;;;;;7.79;94.62;95657.25;5097134;28;20440;-80
2020/12/24 05:15:44;;;;;;;1.80;0.40;;;;;;;7.73;94.30;95654.75;5097233;28;20497;-79
2020/12/24 05:18:15;;;;;;;0.80;0.43;;;;;;;7.60;94.87;95641.50;5097237;28;20411;-80
2020/12/24 05:20:42;;;;;;;0.50;0.30;;;;;;;7.53;95.12;95647.59;5096776;28;20452;-83
2020/12/24 05:23:12;;;;;;;0.53;0.40;;;;;;;7.44;95.26;95637.41;5096314;28;20519;-83
2020/12/24 05:25:39;;;;;;;2.00;0.40;;;;;;;7.34;95.57;95644.53;5096261;28;20484;-80
2020/12/24 05:28:06;;;;;;;1.27;0.40;;;;;;;7.34;96.24;95657.97;5099875;28;20441;-80
2020/12/24 05:30:33;;;;;;;1.80;1.13;;;;;;;7.28;96.17;95657.41;5100267;28;20444;-81
2020/12/24 05:33:00;;;;;;;0.90;0.40;;;;;;;7.20;96.09;95654.75;5100861;28;20399;-81
2020/12/24 05:35:27;;;;;;;0.50;0.40;;;;;;;7.13;96.46;95654.72;5101193;28;20467;-81
2020/12/24 05:37:54;;;;;;;0.80;0.50;;;;;;;7.12;96.59;95650.59;5100941;28;20493;-81
2020/12/24 05:40:23;;;;;;;4.50;0.40;;;;;;;7.11;96.51;95655.22;5100709;28;20448;-81
2020/12/24 05:42:52;;;;;;;1.57;0.60;;;;;;;6.98;96.78;95660.78;5101037;28;20900;-81
2020/12/24 05:45:19;;;;;;;0.70;0.53;;;;;;;7.01;97.20;95657.03;5100434;28;20430;-80
2020/12/24 05:47:47;;;;;;;0.93;0.50;;;;;;;7.00;97.07;95645.56;5100895;28;20445;-81
2020/12/24 05:50:24;;;;;;;2.23;0.60;;;;;;;6.96;97.18;95653.25;5099139;28;20456;-81
2020/12/24 05:53:10;;;;;;;1.10;0.53;;;;;;;6.97;97.00;95645.91;5100533;28;20433;-81
2020/12/24 05:55:38;;;;;;;0.50;0.40;;;;;;;7.01;97.02;95640.94;5100414;28;20420;-81
2020/12/24 05:58:05;;;;;;;2.00;0.63;;;;;;;6.91;97.48;95618.56;5101194;28;20433;-82
2020/12/24 06:00:33;;;;;;;6.20;0.40;;;;;;;6.93;97.21;95621.41;5103609;28;20456;-81
2020/12/24 06:03:10;;;;;;;1.53;0.63;;;;;;;6.95;96.92;95616.94;5117884;28;20435;-83
2020/12/24 06:05:55;;;;;;;2.03;0.50;;;;;;;6.86;96.72;95616.75;5116656;28;20465;-79
2020/12/24 06:08:26;;;;;;;2.10;0.60;;;;;;;6.91;96.71;95608.56;5109229;28;20794;-80
2020/12/24 06:11:07;;;;;;;2.10;0.60;;;;;;;6.78;96.70;95610.66;5096829;28;20475;-82
2020/12/24 06:13:41;;;;;;;2.63;0.70;;;;;;;6.72;97.76;95618.88;5096190;28;20495;-80
2020/12/24 06:16:09;;;;;;;2.57;0.60;;;;;;;6.67;97.83;95611.69;5097524;28;20416;-82
2020/12/24 06:18:39;;;;;;;0.80;0.67;;;;;;;6.65;97.76;95616.16;5096855;28;20444;-82
2020/12/24 06:21:16;;;;;;;1.90;0.57;;;;;;;6.65;98.32;95608.84;5096951;28;20469;-82
2020/12/24 06:23:49;;;;;;;1.10;0.50;;;;;;;6.68;98.20;95605.09;5098026;28;20436;-82
2020/12/24 06:26:22;;;;;;;3.13;0.67;;;;;;;6.78;98.48;95600.66;5102450;28;20480;-82
2020/12/24 06:28:53;;;;;;;2.30;0.50;;;;;;;6.83;97.85;95599.03;5114091;28;20847;-82
2020/12/24 06:31:20;;;;;;;1.07;0.70;;;;;;;6.83;98.04;95591.00;5111462;28;20465;-81
2020/12/24 06:33:47;;;;;;;1.67;0.97;;;;;;;6.84;98.63;95595.13;5109533;28;20436;-82
2020/12/24 06:36:32;;;;;;;2.07;0.80;;;;;;;6.84;98.21;95595.84;5107625;28;20423;-80
2020/12/24 06:38:58;;;;;;;1.97;0.50;;;;;;;6.84;98.16;95590.47;5104325;28;20444;-81
2020/12/24 06:41:28;;;;;;;2.07;1.43;;;;;;;6.84;97.85;95587.78;5104951;28;20468;-82
2020/12/24 06:43:55;;;;;;;2.40;0.60;;;;;;;6.89;97.36;95592.25;5102171;28;20419;-80
2020/12/24 06:46:21;;;;;;;2.57;0.87;;;;;;;6.99;97.19;95571.72;5102875;28;20516;-80
2020/12/24 06:49:06;;;;;;;12.47;3.33;;;;;;;7.03;96.56;95562.59;5101610;28;20444;-83
2020/12/24 06:51:48;;;;;;;1.60;1.00;;;;;;;6.92;96.38;95569.75;5100100;28;20469;-83
2020/12/24 06:54:22;;;;;;;6.80;1.80;;;;;;;7.02;96.05;95575.28;5098179;28;20972;-83
2020/12/24 06:56:49;;;;;;;3.87;1.40;;;;;;;6.96;95.71;95575.47;5100815;28;20519;-84
2020/12/24 06:59:20;;;;;;;3.63;1.30;;;;;;;7.08;95.20;95562.41;5101469;28;20482;-84
2020/12/24 07:02:03;;;;;;;4.17;1.00;;;;;;;7.08;95.84;95564.41;5100803;28;20469;-84
2020/12/24 07:04:38;;;;;;;2.13;0.70;;;;;;;7.11;94.82;95553.31;5100495;28;20440;-79
2020/12/24 07:07:04;;;;;;;0.97;0.80;;;;;;;7.13;95.20;95545.44;5101947;28;20849;-81
2020/12/24 07:09:44;;;;;;;3.50;0.80;;;;;;;7.07;95.29;95552.25;5101092;28;20468;-84
2020/12/24 07:12:26;;;;;;;4.00;1.00;;;;;;;7.11;94.92;95553.31;5099359;28;20434;-84
2020/12/24 07:14:53;;;;;;;2.87;0.80;;;;;;;7.18;94.04;95551.88;5097103;28;20430;-84
2020/12/24 07:17:20;;;;;;;2.73;0.73;;;;;;;7.07;94.68;95557.59;5101899;28;20452;-82
2020/12/24 07:19:50;;;;;;;2.67;1.40;;;;;;;7.09;94.17;95553.13;5101308;28;20476;-83
2020/12/24 07:22:18;;;;;;;5.70;1.63;;;;;;;7.17;92.91;95545.09;5102243;28;20427;-81
2020/12/24 07:24:47;;;;;;;2.60;1.10;;;;;;;7.21;92.64;95540.06;5100198;28;20415;-84
2020/12/24 07:27:13;;;;;;;3.40;1.17;;;;;;;7.19;92.13;95548.66;5099727;28;20527;-84
2020/12/24 07:29:45;;;;;;;4.97;1.13;;;;;;;7.20;91.54;95541.34;5099949;28;20436;-83
2020/12/24 07:32:12;;;;;;;7.83;1.63;;;;;;;7.18;91.41;95538.47;5101685;28;20528;-84
2020/12/24 07:34:38;;;;;;;2.50;1.00;;;;;;;7.29;90.63;95532.75;5100799;28;20433;-79
2020/12/24 07:37:06;;;;;;;7.80;2.10;;;;;;;7.26;89.79;95521.13;5100912;28;20441;-79
2020/12/24 07:39:33;;;;;;;5.67;0.90;;;;;;;7.29;89.72;95530.78;5103253;28;20582;-80
2020/12/24 07:41:59;;;;;;;8.97;1.13;;;;;;;7.26;89.77;95531.88;5103091;28;20500;-80
2020/12/24 07:44:26;;;;;;;6.63;0.97;;;;;;;7.31;88.72;95530.94;5102088;28;20555;-81
2020/12/24 07:47:00;;;;;;;3.13;0.90;;;;;;;7.36;87.76;95530.03;5102135;28;20485;-81
2020/12/24 07:49:26;;;;;;;6.03;1.00;;;;;;;7.37;87.27;95511.97;5098762;28;20421;-80
2020/12/24 07:51:56;;;;;;;4.30;1.20;;;;;;;7.35;87.46;95512.53;5099290;28;20559;-80
2020/12/24 07:54:25;;;;;;;3.20;1.10;;;;;;;7.48;86.72;95511.63;5098903;28;20444;-80
2020/12/24 07:56:52;;;;;;;7.23;1.13;;;;;;;7.54;85.41;95507.50;5100361;28;20799;-79
2020/12/24 07:59:19;;;;;;;8.17;1.13;;;;;;;7.52;86.04;95512.66;5098021;28;20433;-79
2020/12/24 08:01:46;;;;;;;4.17;1.20;;;;;;;7.53;85.93;95511.41;5099802;28;20515;-79
2020/12/24 08:04:12;;;;;;;8.70;1.50;;;;;;;7.52;86.01;95509.97;5099833;28;20444;-80
2020/12/24 08:06:39;;;;;;;6.40;0.97;;;;;;;7.57;85.09;95502.28;5100450;28;20488;-80
2020/12/24 08:09:10;;;;;;;3.50;1.07;;;;;;;7.62;84.23;95512.81;5101998;28;20689;-81
2020/12/24 08:11:38;;;;;;;4.93;1.20;;;;;;;7.63;84.96;95503.53;5103217;28;20475;-81
2020/12/24 08:14:05;;;;;;;4.97;1.00;;;;;;;7.63;84.65;95495.47;5103431;28;20464;-79
2020/12/24 08:16:34;;;;;;;10.27;1.97;;;;;;;7.65;83.82;95505.66;5101455;28;20443;-83
2020/12/24 08:19:08;;;;;;;5.37;1.20;;;;;;;7.75;83.84;95495.78;5103166;28;20537;-85
2020/12/24 08:21:44;;;;;;;4.13;1.17;;;;;;;7.73;82.96;95504.41;5099756;28;20462;-84
2020/12/24 08:24:13;;;;;;;11.13;1.57;;;;;;;7.80;83.13;95502.94;5104136;28;20413;-83
2020/12/24 08:26:40;;;;;;;4.27;1.13;;;;;;;7.76;83.64;95497.94;5105635;28;20488;-83
2020/12/24 08:29:08;;;;;;;5.90;1.20;;;;;;;7.74;83.42;95507.78;5101482;28;20441;-85
2020/12/24 08:31:39;;;;;;;4.83;2.60;;;;;;;7.78;83.45;95508.13;5100638;28;21044;-84
2020/12/24 08:34:08;;;;;;;2.77;0.83;;;;;;;7.70;82.63;95494.75;5099576;28;20786;-84
2020/12/24 08:36:42;;;;;;;9.37;1.23;;;;;;;7.63;83.05;95489.38;5101305;28;20471;-84
2020/12/24 08:39:10;;;;;;;6.20;0.87;;;;;;;7.58;82.92;95485.63;5100293;28;20478;-83
2020/12/24 08:41:41;;;;;;;5.23;0.87;;;;;;;7.52;83.85;95482.41;5100223;28;20567;-85
2020/12/24 08:44:08;;;;;;;2.70;0.60;;;;;;;7.49;84.38;95486.19;5099623;28;20462;-83
2020/12/24 08:46:35;;;;;;;2.23;0.73;;;;;;;7.45;83.67;95489.25;5098092;28;20471;-80
2020/12/24 08:49:22;;;;;;;2.50;0.93;;;;;;;7.47;84.49;95480.66;5098509;28;20444;-80
2020/12/24 08:51:49;;;;;;;3.53;0.90;;;;;;;7.37;84.13;95474.41;5097759;28;20530;-80
2020/12/24 08:54:15;;;;;;;2.80;0.87;;;;;;;7.38;85.17;95468.50;5097872;28;20466;-80
2020/12/24 08:56:44;;;;;;;1.43;0.63;;;;;;;7.30;85.27;95478.53;5097967;28;20445;-79
2020/12/24 08:59:13;;;;;;;3.40;0.70;;;;;;;7.29;85.63;95487.84;5098970;28;20440;-80
2020/12/24 09:01:41;;;;;;;2.73;0.60;;;;;;;7.25;87.03;95471.41;5098407;28;20468;-79
2020/12/24 09:04:12;;;;;;;10.30;3.93;;;;;;;7.34;87.00;95484.25;5097962;28;20506;-80
2020/12/24 09:06:38;;;;;;;1.90;0.80;;;;;;;7.27;86.57;95470.84;5098106;28;20487;-79
2020/12/24 09:09:05;;;;;;;4.27;0.87;;;;;;;7.31;87.60;95493.38;5096739;28;20436;-80
2020/12/24 09:11:32;;;;;;;4.10;1.03;;;;;;;7.32;87.26;95494.09;5097665;28;20968;-80
2020/12/24 09:14:00;;;;;;;6.47;0.60;;;;;;;7.36;87.20;95484.44;5097108;28;20544;-79
2020/12/24 09:16:27;;;;;;;5.30;1.00;;;;;;;7.37;86.98;95487.81;5097777;28;20536;-80
2020/12/24 09:19:04;;;;;;;2.57;0.90;;;;;;;7.41;86.65;95504.28;5099072;28;20440;-80
2020/12/24 09:21:30;;;;;;;3.70;1.10;;;;;;;7.48;86.25;95498.91;5098672;28;20491;-82
2020/12/24 09:24:05;;;;;;;1.83;1.23;;;;;;;7.44;86.89;95487.09;5102245;28;20441;-82
2020/12/24 09:26:32;;;;;;;2.50;0.73;;;;;;;7.48;86.54;95493.56;5102272;28;20931;-81
2020/12/24 09:28:59;;;;;;;5.17;0.70;;;;;;;7.49;86.41;95486.91;5101346;28;20466;-81
2020/12/24 09:31:25;;;;;;;1.00;0.57;;;;;;;7.50;85.88;95490.31;5101943;28;20461;-82
2020/12/24 09:33:52;;;;;;;4.10;0.60;;;;;;;7.51;85.66;95497.13;5101507;28;20452;-82
2020/12/24 09:36:18;;;;;;;3.03;0.60;;;;;;;7.42;85.81;95478.88;5103242;28;20441;-81
2020/12/24 09:38:44;;;;;;;2.57;0.70;;;;;;;7.42;85.65;95481.56;5102387;28;20500;-81
2020/12/24 09:41:11;;;;;;;3.40;1.00;;;;;;;7.48;85.36;95492.84;5103272;28;20442;-80
2020/12/24 09:43:37;;;;;;;1.33;0.60;;;;;;;7.45;85.48;95494.63;5099943;28;20452;-80
2020/12/24 09:46:04;;;;;;;2.80;0.90;;;;;;;7.42;85.50;95503.03;5099267;28;20483;-81
2020/12/24 09:48:30;;;;;;;5.30;0.77;;;;;;;7.53;85.52;95499.97;5097703;28;20440;-81
2020/12/24 09:50:57;;;;;;;4.93;0.90;;;;;;;7.55;84.72;95508.19;5099643;28;20487;-80
2020/12/24 09:53:24;;;;;;;1.23;0.77;;;;;;;7.52;84.84;95504.63;5100556;28;20921;-82
2020/12/24 09:55:50;;;;;;;8.13;1.10;;;;;;;7.54;85.05;95512.13;5099973;28;20444;-81
2020/12/24 09:58:16;;;;;;;2.00;0.70;;;;;;;7.60;84.85;95514.63;5100331;28;21037;-81
2020/12/24 10:00:43;;;;;;;3.23;0.63;;;;;;;7.61;84.88;95524.13;5099752;28;20468;-82
2020/12/24 10:03:10;;;;;;;8.40;2.30;;;;;;;7.72;84.33;95519.06;5101530;28;20410;-82
2020/12/24 10:05:36;;;;;;;8.57;1.37;;;;;;;7.70;84.08;95523.56;5101927;28;20452;-80
2020/12/24 10:08:03;;;;;;;8.13;1.00;;;;;;;7.67;84.64;95530.72;5096691;28;20566;-81
2020/12/24 10:10:29;;;;;;;3.47;1.30;;;;;;;7.70;84.27;95528.94;5098126;28;20501;-80
2020/12/24 10:12:55;;;;;;;2.20;0.80;;;;;;;7.76;84.41;95527.47;5103106;28;20451;-80
2020/12/24 10:15:22;;;;;;;2.90;0.73;;;;;;;7.79;83.86;95541.78;5104032;28;20527;-80
2020/12/24 10:17:48;;;;;;;3.57;0.77;;;;;;;7.86;83.70;95528.31;5117482;28;20438;-79
2020/12/24 10:20:15;;;;;;;1.50;0.60;;;;;;;7.89;83.36;95539.97;5114052;28;20499;-82
2020/12/24 10:22:42;;;;;;;4.00;1.00;;;;;;;7.87;83.83;95543.19;5102571;28;20448;-80
2020/12/24 10:25:08;;;;;;;2.20;0.90;;;;;;;7.91;83.27;95550.88;5107368;28;20457;-81
2020/12/24 10:27:34;;;;;;;1.43;0.60;;;;;;;7.90;83.37;95549.44;5113105;28;21043;-80
2020/12/24 10:30:01;;;;;;;1.63;0.50;;;;;;;7.90;83.19;95557.50;5111757;28;20407;-81
2020/12/24 10:32:27;;;;;;;3.70;0.73;;;;;;;7.90;83.37;95557.50;5111323;28;20460;-80
2020/12/24 10:34:53;;;;;;;1.70;0.60;;;;;;;8.02;83.22;95558.53;5107397;28;20592;-80
2020/12/24 10:37:20;;;;;;;2.87;0.87;;;;;;;8.07;83.32;95563.03;5103186;28;20440;-80
2020/12/24 10:39:47;;;;;;;2.20;0.73;;;;;;;8.13;82.68;95558.16;5101641;28;20444;-80
2020/12/24 10:42:14;;;;;;;3.50;0.90;;;;;;;8.22;82.22;95565.66;5101910;28;20810;-80
2020/12/24 10:44:40;;;;;;;4.17;0.47;;;;;;;8.21;82.38;95564.22;5102709;28;20463;-80
2020/12/24 10:47:06;;;;;;;2.00;1.00;;;;;;;8.19;82.86;95561.38;5101974;28;20488;-81
2020/12/24 10:49:33;;;;;;;1.90;0.80;;;;;;;8.22;82.52;95562.25;5102541;28;20452;-80
2020/12/24 10:51:59;;;;;;;5.20;0.80;;;;;;;8.22;82.47;95565.66;5100695;28;20468;-79
2020/12/24 10:54:26;;;;;;;0.80;0.50;;;;;;;8.38;81.86;95556.31;5100177;28;20440;-80
2020/12/24 10:56:53;;;;;;;2.20;1.03;;;;;;;8.39;82.15;95568.50;5101341;28;20523;-80
2020/12/24 10:59:19;;;;;;;5.07;0.80;;;;;;;8.48;81.85;95569.88;5105026;28;20430;-81
2020/12/24 11:01:46;;;;;;;4.37;0.70;;;;;;;8.45;81.55;95570.97;5105653;28;20464;-82
2020/12/24 11:04:14;;;;;;;0.97;0.50;;;;;;;8.46;81.22;95567.00;5106328;28;20449;-81
2020/12/24 11:06:43;;;;;;;2.10;0.63;;;;;;;8.48;81.17;95561.81;5106427;28;20939;-82
2020/12/24 11:09:10;;;;;;;2.50;0.70;;;;;;;8.58;81.17;95563.34;5106308;28;20452;-83
2020/12/24 11:11:38;;;;;;;2.63;0.83;;;;;;;8.63;81.88;95561.72;5107287;28;20468;-82
2020/12/24 11:14:05;;;;;;;1.90;0.83;;;;;;;8.71;81.17;95562.38;5106872;28;20864;-83
2020/12/24 11:16:31;;;;;;;1.20;0.60;;;;;;;8.71;81.17;95559.69;5104697;28;20941;-83
2020/12/24 11:18:58;;;;;;;2.93;0.70;;;;;;;8.70;81.26;95558.28;5103113;28;20479;-79
2020/12/24 11:21:24;;;;;;;2.33;0.50;;;;;;;8.69;80.76;95562.22;5100375;28;20575;-80
2020/12/24 11:23:51;;;;;;;1.43;0.80;;;;;;;8.50;80.43;95548.53;5099980;28;20948;-80
2020/12/24 11:26:21;;;;;;;0.80;0.57;;;;;;;8.50;80.17;95541.19;5099559;28;20480;-80
2020/12/24 11:28:48;;;;;;;1.33;0.50;;;;;;;8.46;80.99;95543.53;5100451;28;20407;-79
2020/12/24 11:31:22;;;;;;;1.00;0.40;;;;;;;8.37;81.16;95538.00;5099452;28;20785;-79
2020/12/24 11:33:48;;;;;;;1.90;0.57;;;;;;;8.46;80.88;95535.47;5099944;28;20497;-80
2020/12/24 11:36:15;;;;;;;0.87;0.40;;;;;;;8.53;80.78;95531.31;5100813;28;20424;-79
2020/12/24 11:38:41;;;;;;;3.60;0.47;;;;;;;8.50;80.32;95514.28;5099370;28;20844;-80
2020/12/24 11:41:13;;;;;;;1.43;0.70;;;;;;;8.46;80.23;95530.09;5099903;28;20460;-78
2020/12/24 11:43:40;;;;;;;2.03;0.53;;;;;;;8.56;80.21;95517.47;5100665;28;20433;-79
2020/12/24 11:46:09;;;;;;;2.10;0.40;;;;;;;8.47;80.23;95514.66;5101734;28;20428;-84